QFA191 YSSY-AYPY
Flight info
| Callsign | QFA191 |
|---|---|
| Flight time | 3h 44m |
| Altitude | 39000 |
| Route | OLSEM H252 UPNEX H140 IDNER H66 LAGOB H252 BN Q67 GUDSO Q24 KELPI B220 VIPAM DCT LOTGU LOTGU1 |
| Aircraft | A21N/M-SDE2E3FGHIRWXY/LB1 |
Departure
| Time | 2026-05-07 02:08 |
|---|---|
| Airport | Sydney Kingsford Smith International Airport (YSSY) |
Arrival
| Time | 2026-05-07 05:52 |
|---|---|
| Airport | Port Moresby Jacksons International Airport (AYPY) |
| Time | Latitude | Longitude | Altitude | Speed | Heading |
|---|---|---|---|---|---|
| 2026-05-07 02:02 | -33.93505 | 151.18946 | 33 ft | 0 kts | 346° |
| 2026-05-07 02:05 | -33.93517 | 151.18950 | 32 ft | 3 kts | 346° |
| 2026-05-07 02:05 | -33.93537 | 151.18956 | 31 ft | 3 kts | 346° |
| 2026-05-07 02:05 | -33.93556 | 151.18962 | 31 ft | 3 kts | 346° |
| 2026-05-07 02:06 | -33.93575 | 151.18969 | 30 ft | 3 kts | 311° |
| 2026-05-07 02:06 | -33.93580 | 151.18987 | 29 ft | 0 kts | 259° |
| 2026-05-07 02:06 | -33.93581 | 151.18986 | 29 ft | 0 kts | 258° |
| 2026-05-07 02:06 | -33.93645 | 151.18966 | 27 ft | 21 kts | 164° |
| 2026-05-07 02:07 | -33.93677 | 151.18979 | 27 ft | 12 kts | 184° |
| 2026-05-07 02:07 | -33.93805 | 151.18780 | 28 ft | 51 kts | 253° |
| 2026-05-07 02:07 | -33.93988 | 151.17992 | 102 ft | 136 kts | 255° |
| 2026-05-07 02:08 | -33.93866 | 151.16721 | 687 ft | 180 kts | 296° |
| 2026-05-07 02:08 | -33.92776 | 151.15811 | 1605 ft | 217 kts | 341° |
| 2026-05-07 02:08 | -33.91157 | 151.15989 | 2580 ft | 256 kts | 9° |
| 2026-05-07 02:08 | -33.89366 | 151.16507 | 3686 ft | 267 kts | 4° |
| 2026-05-07 02:09 | -33.87534 | 151.17044 | 5114 ft | 273 kts | 9° |
| 2026-05-07 02:09 | -33.85672 | 151.17662 | 6487 ft | 282 kts | 9° |
| 2026-05-07 02:09 | -33.83778 | 151.18308 | 7771 ft | 288 kts | 8° |
| 2026-05-07 02:09 | -33.81860 | 151.18969 | 9318 ft | 286 kts | 7° |
| 2026-05-07 02:10 | -33.79941 | 151.19623 | 10739 ft | 291 kts | 5° |
| 2026-05-07 02:10 | -33.77904 | 151.20284 | 11554 ft | 316 kts | 5° |
| 2026-05-07 02:10 | -33.75662 | 151.20984 | 12158 ft | 346 kts | 5° |
| 2026-05-07 02:10 | -33.73248 | 151.21741 | 12880 ft | 368 kts | 5° |
| 2026-05-07 02:11 | -33.70779 | 151.22540 | 13969 ft | 375 kts | 6° |
| 2026-05-07 02:11 | -33.68242 | 151.23378 | 15066 ft | 379 kts | 5° |
| 2026-05-07 02:11 | -33.65674 | 151.24227 | 15943 ft | 386 kts | 4° |
| 2026-05-07 02:11 | -33.63046 | 151.25086 | 16779 ft | 395 kts | 4° |
| 2026-05-07 02:12 | -33.60378 | 151.25957 | 17724 ft | 399 kts | 4° |
| 2026-05-07 02:12 | -33.57674 | 151.26838 | 18613 ft | 404 kts | 3° |
| 2026-05-07 02:12 | -33.54934 | 151.27727 | 19337 ft | 410 kts | 3° |
| 2026-05-07 02:12 | -33.52162 | 151.28623 | 20006 ft | 416 kts | 3° |
| 2026-05-07 02:13 | -33.49378 | 151.29521 | 20687 ft | 421 kts | 3° |
| 2026-05-07 02:13 | -33.46531 | 151.30439 | 21375 ft | 425 kts | 3° |
| 2026-05-07 02:13 | -33.43636 | 151.31370 | 21856 ft | 433 kts | 3° |
| 2026-05-07 02:13 | -33.40718 | 151.32303 | 22306 ft | 442 kts | 4° |
| 2026-05-07 02:14 | -33.37721 | 151.33265 | 22919 ft | 446 kts | 4° |
| 2026-05-07 02:14 | -33.34708 | 151.34240 | 23569 ft | 448 kts | 4° |
| 2026-05-07 02:14 | -33.31691 | 151.35219 | 24180 ft | 450 kts | 4° |
| 2026-05-07 02:14 | -33.28664 | 151.36200 | 24740 ft | 451 kts | 4° |
| 2026-05-07 02:15 | -33.25653 | 151.37170 | 25254 ft | 454 kts | 4° |
| 2026-05-07 02:15 | -33.22596 | 151.38151 | 25728 ft | 455 kts | 4° |
| 2026-05-07 02:15 | -33.19534 | 151.39134 | 26325 ft | 455 kts | 4° |
| 2026-05-07 02:15 | -33.16488 | 151.40116 | 27090 ft | 450 kts | 3° |
| 2026-05-07 02:16 | -33.13484 | 151.41088 | 27850 ft | 445 kts | 3° |
| 2026-05-07 02:16 | -33.10542 | 151.42036 | 28522 ft | 441 kts | 2° |
| 2026-05-07 02:16 | -33.07588 | 151.42984 | 29188 ft | 438 kts | 2° |
| 2026-05-07 02:16 | -33.04655 | 151.43922 | 29871 ft | 435 kts | 1° |
| 2026-05-07 02:17 | -33.01732 | 151.44855 | 30414 ft | 431 kts | 2° |
| 2026-05-07 02:17 | -32.98827 | 151.45780 | 30892 ft | 430 kts | 1° |
| 2026-05-07 02:17 | -32.95929 | 151.46697 | 31192 ft | 432 kts | 1° |
| 2026-05-07 02:17 | -32.93049 | 151.47607 | 31595 ft | 432 kts | 2° |
| 2026-05-07 02:18 | -32.90144 | 151.48528 | 32051 ft | 431 kts | 2° |
| 2026-05-07 02:18 | -32.87247 | 151.49449 | 32479 ft | 430 kts | 2° |
| 2026-05-07 02:18 | -32.84339 | 151.50373 | 32772 ft | 432 kts | 2° |
| 2026-05-07 02:18 | -32.81414 | 151.51295 | 32927 ft | 437 kts | 2° |
| 2026-05-07 02:19 | -32.78501 | 151.52214 | 33140 ft | 440 kts | 2° |
| 2026-05-07 02:19 | -32.75538 | 151.53165 | 33548 ft | 440 kts | 3° |
| 2026-05-07 02:19 | -32.72585 | 151.54198 | 33955 ft | 441 kts | 4° |
| 2026-05-07 02:19 | -32.69653 | 151.55286 | 34280 ft | 442 kts | 5° |
| 2026-05-07 02:20 | -32.66746 | 151.56391 | 34552 ft | 443 kts | 5° |
| 2026-05-07 02:20 | -32.63802 | 151.57516 | 34785 ft | 445 kts | 5° |
| 2026-05-07 02:20 | -32.60846 | 151.58641 | 35042 ft | 445 kts | 5° |
| 2026-05-07 02:20 | -32.57888 | 151.59761 | 35306 ft | 446 kts | 5° |
| 2026-05-07 02:21 | -32.54929 | 151.60874 | 35554 ft | 446 kts | 5° |
| 2026-05-07 02:21 | -32.52961 | 151.61611 | 35706 ft | 447 kts | 5° |
| 2026-05-07 02:21 | -32.49013 | 151.63085 | 36001 ft | 449 kts | 5° |
| 2026-05-07 02:21 | -32.46032 | 151.64194 | 36212 ft | 449 kts | 5° |
| 2026-05-07 02:22 | -32.44016 | 151.64946 | 36457 ft | 448 kts | 5° |
| 2026-05-07 02:22 | -32.41082 | 151.66040 | 36659 ft | 448 kts | 4° |
| 2026-05-07 02:22 | -32.37087 | 151.67524 | 36913 ft | 450 kts | 4° |
| 2026-05-07 02:22 | -32.35109 | 151.68258 | 37020 ft | 451 kts | 4° |
| 2026-05-07 02:23 | -32.32109 | 151.69371 | 37191 ft | 453 kts | 4° |
| 2026-05-07 02:23 | -32.29096 | 151.70488 | 37425 ft | 453 kts | 4° |
| 2026-05-07 02:23 | -32.26085 | 151.71607 | 37676 ft | 454 kts | 4° |
| 2026-05-07 02:23 | -32.23074 | 151.72725 | 37913 ft | 454 kts | 4° |
| 2026-05-07 02:24 | -32.20048 | 151.73847 | 38099 ft | 455 kts | 4° |
| 2026-05-07 02:24 | -32.17018 | 151.74969 | 38300 ft | 457 kts | 4° |
| 2026-05-07 02:24 | -32.13978 | 151.76094 | 38527 ft | 457 kts | 4° |
| 2026-05-07 02:24 | -32.10978 | 151.77207 | 38787 ft | 456 kts | 4° |
| 2026-05-07 02:25 | -32.07946 | 151.78329 | 38938 ft | 456 kts | 4° |
| 2026-05-07 02:25 | -32.04911 | 151.79449 | 39043 ft | 457 kts | 4° |
| 2026-05-07 02:25 | -31.98877 | 151.81676 | 39037 ft | 456 kts | 4° |
| 2026-05-07 02:26 | -31.92802 | 151.83913 | 39053 ft | 457 kts | 4° |
| 2026-05-07 02:26 | -31.86736 | 151.86146 | 39033 ft | 455 kts | 4° |
| 2026-05-07 02:27 | -31.80695 | 151.88366 | 39041 ft | 454 kts | 4° |
| 2026-05-07 02:27 | -31.74656 | 151.90580 | 39042 ft | 454 kts | 4° |
| 2026-05-07 02:28 | -31.68623 | 151.92790 | 39016 ft | 454 kts | 4° |
| 2026-05-07 02:28 | -31.62620 | 151.94986 | 39032 ft | 454 kts | 3° |
| 2026-05-07 02:29 | -31.56594 | 151.97188 | 39035 ft | 454 kts | 3° |
| 2026-05-07 02:29 | -31.50587 | 151.99381 | 39036 ft | 452 kts | 3° |
| 2026-05-07 02:30 | -31.44567 | 152.01576 | 39038 ft | 453 kts | 3° |
| 2026-05-07 02:30 | -31.38545 | 152.03768 | 39040 ft | 452 kts | 3° |
| 2026-05-07 02:31 | -31.32536 | 152.05950 | 39038 ft | 451 kts | 3° |
| 2026-05-07 02:31 | -31.26575 | 152.08113 | 39039 ft | 451 kts | 3° |
| 2026-05-07 02:32 | -31.20556 | 152.10294 | 39037 ft | 451 kts | 3° |
| 2026-05-07 02:32 | -31.14599 | 152.12451 | 39044 ft | 450 kts | 3° |
| 2026-05-07 02:33 | -31.08610 | 152.14614 | 39039 ft | 450 kts | 3° |
| 2026-05-07 02:33 | -31.02605 | 152.16777 | 39030 ft | 451 kts | 3° |
| 2026-05-07 02:34 | -30.96634 | 152.18935 | 39027 ft | 445 kts | 3° |
| 2026-05-07 02:34 | -30.90738 | 152.21059 | 39040 ft | 446 kts | 2° |
| 2026-05-07 02:35 | -30.84787 | 152.23195 | 39036 ft | 447 kts | 2° |
| 2026-05-07 02:35 | -30.78875 | 152.25318 | 38988 ft | 445 kts | 2° |
| 2026-05-07 02:36 | -30.72973 | 152.27442 | 39043 ft | 444 kts | 2° |
| 2026-05-07 02:36 | -30.67049 | 152.29557 | 39026 ft | 446 kts | 2° |
| 2026-05-07 02:37 | -30.61142 | 152.31668 | 39020 ft | 446 kts | 2° |
| 2026-05-07 02:37 | -30.55178 | 152.33800 | 38999 ft | 446 kts | 2° |
| 2026-05-07 02:38 | -30.49242 | 152.35931 | 39040 ft | 449 kts | 4° |
| 2026-05-07 02:38 | -30.43344 | 152.38362 | 39033 ft | 454 kts | 6° |
| 2026-05-07 02:39 | -30.37424 | 152.40977 | 39029 ft | 454 kts | 6° |
| 2026-05-07 02:39 | -30.31510 | 152.43584 | 39026 ft | 454 kts | 6° |
| 2026-05-07 02:40 | -30.25595 | 152.46154 | 39025 ft | 453 kts | 6° |
| 2026-05-07 02:40 | -30.19722 | 152.48688 | 39028 ft | 452 kts | 6° |
| 2026-05-07 02:41 | -30.13787 | 152.51241 | 39026 ft | 453 kts | 6° |
| 2026-05-07 02:41 | -30.07911 | 152.53767 | 39009 ft | 453 kts | 5° |
| 2026-05-07 02:42 | -30.01976 | 152.56316 | 39022 ft | 453 kts | 5° |
| 2026-05-07 02:42 | -29.96094 | 152.58841 | 39015 ft | 453 kts | 5° |
| 2026-05-07 02:43 | -29.90178 | 152.61377 | 39008 ft | 454 kts | 5° |
| 2026-05-07 02:43 | -29.84250 | 152.63914 | 38997 ft | 454 kts | 5° |
| 2026-05-07 02:44 | -29.78323 | 152.66449 | 39006 ft | 454 kts | 5° |
| 2026-05-07 02:44 | -29.72383 | 152.68985 | 39012 ft | 454 kts | 5° |
| 2026-05-07 02:45 | -29.66476 | 152.71504 | 39007 ft | 455 kts | 5° |
| 2026-05-07 02:45 | -29.60535 | 152.74033 | 38997 ft | 455 kts | 5° |
| 2026-05-07 02:46 | -29.54622 | 152.76549 | 39009 ft | 455 kts | 5° |
| 2026-05-07 02:46 | -29.48667 | 152.79079 | 39006 ft | 455 kts | 5° |
| 2026-05-07 02:47 | -29.42756 | 152.81587 | 39011 ft | 455 kts | 5° |
| 2026-05-07 02:47 | -29.36806 | 152.84105 | 39003 ft | 454 kts | 5° |
| 2026-05-07 02:48 | -29.30879 | 152.86604 | 39013 ft | 453 kts | 5° |
| 2026-05-07 02:48 | -29.24996 | 152.89076 | 39013 ft | 453 kts | 5° |
| 2026-05-07 02:49 | -29.19060 | 152.91567 | 39009 ft | 453 kts | 5° |
| 2026-05-07 02:49 | -29.13177 | 152.94035 | 39006 ft | 453 kts | 5° |
| 2026-05-07 02:50 | -29.07229 | 152.96527 | 39018 ft | 454 kts | 5° |
| 2026-05-07 02:50 | -29.01301 | 152.99010 | 39004 ft | 454 kts | 5° |
| 2026-05-07 02:51 | -28.95369 | 153.01491 | 39015 ft | 454 kts | 5° |
| 2026-05-07 02:51 | -28.89474 | 153.03952 | 38997 ft | 453 kts | 4° |
| 2026-05-07 02:52 | -28.86489 | 153.04970 | 39018 ft | 442 kts | 360° |
| 2026-05-07 02:52 | -28.83504 | 153.05827 | 39018 ft | 440 kts | 359° |
| 2026-05-07 02:52 | -28.77537 | 153.07408 | 39021 ft | 439 kts | 358° |
| 2026-05-07 02:53 | -28.71594 | 153.08922 | 39022 ft | 439 kts | 358° |
| 2026-05-07 02:53 | -28.65664 | 153.10437 | 38994 ft | 439 kts | 358° |
| 2026-05-07 02:54 | -28.59666 | 153.11972 | 39021 ft | 441 kts | 358° |
| 2026-05-07 02:54 | -28.53683 | 153.13517 | 39023 ft | 440 kts | 358° |
| 2026-05-07 02:55 | -28.47705 | 153.15058 | 39012 ft | 441 kts | 358° |
| 2026-05-07 02:55 | -28.41735 | 153.16581 | 38996 ft | 443 kts | 358° |
| 2026-05-07 02:56 | -28.35716 | 153.18128 | 39018 ft | 443 kts | 358° |
| 2026-05-07 02:56 | -28.29736 | 153.19667 | 39013 ft | 443 kts | 358° |
| 2026-05-07 02:57 | -28.23706 | 153.21214 | 39007 ft | 442 kts | 358° |
| 2026-05-07 02:57 | -28.17731 | 153.22746 | 39014 ft | 440 kts | 358° |
| 2026-05-07 02:58 | -28.11748 | 153.24278 | 39014 ft | 441 kts | 358° |
| 2026-05-07 02:58 | -28.05727 | 153.25819 | 39012 ft | 442 kts | 358° |
| 2026-05-07 02:59 | -27.99752 | 153.27347 | 39015 ft | 442 kts | 358° |
| 2026-05-07 02:59 | -27.93754 | 153.28881 | 39016 ft | 442 kts | 358° |
| 2026-05-07 03:00 | -27.87737 | 153.30425 | 39016 ft | 442 kts | 358° |
| 2026-05-07 03:00 | -27.81759 | 153.31938 | 39017 ft | 437 kts | 354° |
| 2026-05-07 03:01 | -27.78792 | 153.32323 | 39016 ft | 422 kts | 347° |
| 2026-05-07 03:01 | -27.75903 | 153.32241 | 39017 ft | 406 kts | 340° |
| 2026-05-07 03:01 | -27.73174 | 153.31693 | 39017 ft | 391 kts | 332° |
| 2026-05-07 03:01 | -27.70627 | 153.30737 | 39018 ft | 382 kts | 327° |
| 2026-05-07 03:02 | -27.65795 | 153.28446 | 39019 ft | 378 kts | 324° |
| 2026-05-07 03:02 | -27.60998 | 153.26008 | 39018 ft | 377 kts | 324° |
| 2026-05-07 03:03 | -27.56200 | 153.23587 | 39019 ft | 378 kts | 324° |
| 2026-05-07 03:03 | -27.51376 | 153.21192 | 39027 ft | 378 kts | 324° |
| 2026-05-07 03:04 | -27.46579 | 153.18828 | 39026 ft | 378 kts | 324° |
| 2026-05-07 03:04 | -27.41743 | 153.16456 | 39021 ft | 380 kts | 326° |
| 2026-05-07 03:05 | -27.36538 | 153.14781 | 39021 ft | 401 kts | 338° |
| 2026-05-07 03:05 | -27.33702 | 153.14555 | 39011 ft | 417 kts | 346° |
| 2026-05-07 03:05 | -27.30798 | 153.14766 | 39019 ft | 426 kts | 351° |
| 2026-05-07 03:06 | -27.24857 | 153.15641 | 39023 ft | 433 kts | 353° |
| 2026-05-07 03:06 | -27.18918 | 153.16672 | 39024 ft | 433 kts | 353° |
| 2026-05-07 03:07 | -27.12948 | 153.17678 | 39027 ft | 432 kts | 353° |
| 2026-05-07 03:07 | -27.06986 | 153.18640 | 39024 ft | 432 kts | 353° |
| 2026-05-07 03:08 | -27.01055 | 153.19579 | 39034 ft | 432 kts | 353° |
| 2026-05-07 03:08 | -26.95099 | 153.20519 | 39034 ft | 432 kts | 353° |
| 2026-05-07 03:09 | -26.89148 | 153.21459 | 39034 ft | 432 kts | 353° |
| 2026-05-07 03:09 | -26.84187 | 153.22244 | 39034 ft | 432 kts | 353° |
| 2026-05-07 03:10 | -26.78228 | 153.23184 | 39029 ft | 433 kts | 353° |
| 2026-05-07 03:10 | -26.71310 | 153.24094 | 39024 ft | 420 kts | 346° |
| 2026-05-07 03:11 | -26.66577 | 153.23620 | 39023 ft | 395 kts | 334° |
| 2026-05-07 03:11 | -26.61354 | 153.22047 | 39022 ft | 388 kts | 330° |
| 2026-05-07 03:12 | -26.56200 | 153.20237 | 39022 ft | 387 kts | 329° |
| 2026-05-07 03:12 | -26.51086 | 153.18414 | 39016 ft | 388 kts | 329° |
| 2026-05-07 03:13 | -26.45908 | 153.16602 | 39023 ft | 389 kts | 330° |
| 2026-05-07 03:13 | -26.40730 | 153.14813 | 39026 ft | 389 kts | 330° |
| 2026-05-07 03:14 | -26.35543 | 153.13028 | 39032 ft | 390 kts | 330° |
| 2026-05-07 03:15 | -26.27798 | 153.10374 | 39033 ft | 390 kts | 330° |
| 2026-05-07 03:15 | -26.22546 | 153.08732 | 39032 ft | 392 kts | 332° |
| 2026-05-07 03:16 | -26.17273 | 153.07161 | 39035 ft | 391 kts | 332° |
| 2026-05-07 03:16 | -26.12030 | 153.05598 | 39035 ft | 391 kts | 332° |
| 2026-05-07 03:17 | -26.06769 | 153.04015 | 39034 ft | 392 kts | 332° |
| 2026-05-07 03:17 | -26.01501 | 153.02427 | 39034 ft | 392 kts | 332° |
| 2026-05-07 03:18 | -25.96258 | 153.00848 | 39009 ft | 392 kts | 332° |
| 2026-05-07 03:18 | -25.90986 | 152.99262 | 39032 ft | 392 kts | 332° |
| 2026-05-07 03:19 | -25.85718 | 152.97679 | 39032 ft | 392 kts | 332° |
| 2026-05-07 03:19 | -25.80478 | 152.96106 | 39031 ft | 392 kts | 332° |
| 2026-05-07 03:20 | -25.75192 | 152.94520 | 39029 ft | 392 kts | 332° |
| 2026-05-07 03:20 | -25.69954 | 152.92951 | 39029 ft | 392 kts | 332° |
| 2026-05-07 03:21 | -25.64678 | 152.91369 | 39030 ft | 393 kts | 332° |
| 2026-05-07 03:21 | -25.59584 | 152.89378 | 39029 ft | 386 kts | 327° |
| 2026-05-07 03:22 | -25.54617 | 152.87210 | 39031 ft | 385 kts | 327° |
| 2026-05-07 03:22 | -25.49646 | 152.84994 | 39028 ft | 385 kts | 327° |
| 2026-05-07 03:23 | -25.44665 | 152.82779 | 39030 ft | 385 kts | 327° |
| 2026-05-07 03:23 | -25.39719 | 152.80589 | 39025 ft | 385 kts | 327° |
| 2026-05-07 03:24 | -25.34740 | 152.78391 | 39016 ft | 385 kts | 327° |
| 2026-05-07 03:24 | -25.29773 | 152.76198 | 39024 ft | 386 kts | 327° |
| 2026-05-07 03:25 | -25.24768 | 152.73993 | 39021 ft | 387 kts | 327° |
| 2026-05-07 03:25 | -25.19758 | 152.71787 | 39023 ft | 387 kts | 327° |
| 2026-05-07 03:26 | -25.14755 | 152.69587 | 39025 ft | 387 kts | 327° |
| 2026-05-07 03:26 | -25.09741 | 152.67383 | 39020 ft | 387 kts | 327° |
| 2026-05-07 03:27 | -25.04762 | 152.65197 | 39020 ft | 387 kts | 327° |
| 2026-05-07 03:27 | -24.99755 | 152.63000 | 39023 ft | 387 kts | 327° |
| 2026-05-07 03:28 | -24.94747 | 152.60804 | 39023 ft | 387 kts | 327° |
| 2026-05-07 03:28 | -24.89767 | 152.58623 | 39023 ft | 387 kts | 327° |
| 2026-05-07 03:29 | -24.84753 | 152.56429 | 39020 ft | 387 kts | 327° |
| 2026-05-07 03:29 | -24.79737 | 152.54235 | 39020 ft | 387 kts | 327° |
| 2026-05-07 03:30 | -24.74729 | 152.52047 | 39010 ft | 388 kts | 327° |
| 2026-05-07 03:30 | -24.69740 | 152.49868 | 39023 ft | 388 kts | 327° |
| 2026-05-07 03:31 | -24.64705 | 152.47673 | 39018 ft | 388 kts | 327° |
| 2026-05-07 03:31 | -24.59712 | 152.45497 | 39018 ft | 388 kts | 327° |
| 2026-05-07 03:32 | -24.54684 | 152.43309 | 39017 ft | 388 kts | 327° |
| 2026-05-07 03:32 | -24.49648 | 152.41118 | 39018 ft | 388 kts | 327° |
| 2026-05-07 03:33 | -24.44641 | 152.38942 | 39005 ft | 388 kts | 328° |
| 2026-05-07 03:33 | -24.39597 | 152.36750 | 39017 ft | 390 kts | 328° |
| 2026-05-07 03:34 | -24.34549 | 152.34560 | 39017 ft | 390 kts | 328° |
| 2026-05-07 03:34 | -24.29500 | 152.32372 | 39017 ft | 390 kts | 328° |
| 2026-05-07 03:35 | -24.24480 | 152.30198 | 39018 ft | 390 kts | 328° |
| 2026-05-07 03:35 | -24.19423 | 152.28010 | 39017 ft | 390 kts | 328° |
| 2026-05-07 03:36 | -24.14370 | 152.25825 | 38991 ft | 390 kts | 328° |
| 2026-05-07 03:36 | -24.09337 | 152.23649 | 39017 ft | 392 kts | 328° |
| 2026-05-07 03:37 | -24.04260 | 152.21458 | 39018 ft | 392 kts | 328° |
| 2026-05-07 03:37 | -23.99174 | 152.19265 | 39021 ft | 392 kts | 328° |
| 2026-05-07 03:38 | -23.94094 | 152.17076 | 39018 ft | 392 kts | 328° |
| 2026-05-07 03:38 | -23.89010 | 152.14888 | 39018 ft | 392 kts | 328° |
| 2026-05-07 03:39 | -23.83965 | 152.12717 | 38997 ft | 392 kts | 328° |
| 2026-05-07 03:39 | -23.78864 | 152.10524 | 39018 ft | 393 kts | 328° |
| 2026-05-07 03:40 | -23.73793 | 152.08346 | 39015 ft | 394 kts | 328° |
| 2026-05-07 03:40 | -23.68690 | 152.06156 | 39017 ft | 394 kts | 328° |
| 2026-05-07 03:41 | -23.63581 | 152.03967 | 39014 ft | 394 kts | 328° |
| 2026-05-07 03:41 | -23.58472 | 152.01778 | 39011 ft | 394 kts | 328° |
| 2026-05-07 03:42 | -23.53402 | 151.99608 | 38983 ft | 394 kts | 328° |
| 2026-05-07 03:42 | -23.48273 | 151.97413 | 39012 ft | 396 kts | 329° |
| 2026-05-07 03:43 | -23.43131 | 151.95215 | 39013 ft | 396 kts | 329° |
| 2026-05-07 03:43 | -23.38028 | 151.93038 | 39014 ft | 396 kts | 329° |
| 2026-05-07 03:44 | -23.32884 | 151.90844 | 39010 ft | 396 kts | 329° |
| 2026-05-07 03:44 | -23.27740 | 151.88652 | 39012 ft | 396 kts | 329° |
| 2026-05-07 03:45 | -23.22636 | 151.86478 | 38982 ft | 396 kts | 329° |
| 2026-05-07 03:45 | -23.17493 | 151.84288 | 39018 ft | 397 kts | 329° |
| 2026-05-07 03:46 | -23.12331 | 151.82093 | 39007 ft | 398 kts | 329° |
| 2026-05-07 03:46 | -23.07192 | 151.79910 | 39015 ft | 398 kts | 329° |
| 2026-05-07 03:47 | -23.02015 | 151.77713 | 39007 ft | 398 kts | 329° |
| 2026-05-07 03:47 | -22.96878 | 151.75535 | 39010 ft | 398 kts | 329° |
| 2026-05-07 03:48 | -22.91713 | 151.73346 | 39010 ft | 398 kts | 329° |
| 2026-05-07 03:48 | -22.86535 | 151.71152 | 39008 ft | 400 kts | 329° |
| 2026-05-07 03:49 | -22.81358 | 151.68961 | 39007 ft | 401 kts | 330° |
| 2026-05-07 03:49 | -22.76150 | 151.66760 | 39004 ft | 401 kts | 330° |
| 2026-05-07 03:50 | -22.70940 | 151.64561 | 39005 ft | 401 kts | 330° |
| 2026-05-07 03:50 | -22.65761 | 151.62375 | 39002 ft | 401 kts | 330° |
| 2026-05-07 03:51 | -22.60553 | 151.60179 | 38997 ft | 401 kts | 330° |
| 2026-05-07 03:51 | -22.55307 | 151.58028 | 39002 ft | 404 kts | 332° |
| 2026-05-07 03:52 | -22.49978 | 151.56081 | 39002 ft | 407 kts | 333° |
| 2026-05-07 03:52 | -22.44592 | 151.54180 | 39001 ft | 407 kts | 333° |
| 2026-05-07 03:53 | -22.39212 | 151.52268 | 39002 ft | 406 kts | 333° |
| 2026-05-07 03:53 | -22.33864 | 151.50352 | 39001 ft | 406 kts | 333° |
| 2026-05-07 03:54 | -22.28499 | 151.48423 | 38974 ft | 406 kts | 333° |
| 2026-05-07 03:54 | -22.23116 | 151.46488 | 38999 ft | 408 kts | 333° |
| 2026-05-07 03:55 | -22.17731 | 151.44555 | 38999 ft | 408 kts | 333° |
| 2026-05-07 03:55 | -22.12353 | 151.42628 | 38998 ft | 408 kts | 333° |
| 2026-05-07 03:56 | -22.06980 | 151.40705 | 38998 ft | 408 kts | 333° |
| 2026-05-07 03:56 | -22.01582 | 151.38774 | 38999 ft | 408 kts | 333° |
| 2026-05-07 03:57 | -21.96188 | 151.36845 | 38999 ft | 408 kts | 333° |
| 2026-05-07 03:57 | -21.90784 | 151.34915 | 38996 ft | 408 kts | 333° |
| 2026-05-07 03:58 | -21.85423 | 151.33001 | 39000 ft | 408 kts | 333° |
| 2026-05-07 03:58 | -21.80021 | 151.31075 | 38996 ft | 408 kts | 333° |
| 2026-05-07 03:59 | -21.75545 | 151.29479 | 38996 ft | 408 kts | 333° |
| 2026-05-07 03:59 | -21.70161 | 151.27561 | 38996 ft | 407 kts | 333° |
| 2026-05-07 04:00 | -21.64763 | 151.25640 | 38990 ft | 409 kts | 333° |
| 2026-05-07 04:00 | -21.59390 | 151.23728 | 38996 ft | 410 kts | 334° |
| 2026-05-07 04:01 | -21.53974 | 151.21805 | 38996 ft | 410 kts | 334° |
| 2026-05-07 04:01 | -21.48550 | 151.19880 | 38993 ft | 410 kts | 334° |
| 2026-05-07 04:02 | -21.43120 | 151.17954 | 38993 ft | 410 kts | 334° |
| 2026-05-07 04:02 | -21.37729 | 151.16043 | 38993 ft | 410 kts | 334° |
| 2026-05-07 04:03 | -21.32297 | 151.14118 | 38996 ft | 411 kts | 334° |
| 2026-05-07 04:03 | -21.26844 | 151.12187 | 38991 ft | 412 kts | 334° |
| 2026-05-07 04:04 | -21.21387 | 151.10258 | 38992 ft | 412 kts | 334° |
| 2026-05-07 04:04 | -21.15970 | 151.08345 | 38986 ft | 412 kts | 334° |
| 2026-05-07 04:05 | -21.10506 | 151.06416 | 38992 ft | 412 kts | 334° |
| 2026-05-07 04:05 | -21.05080 | 151.04501 | 38966 ft | 412 kts | 334° |
| 2026-05-07 04:06 | -20.99600 | 151.02569 | 38990 ft | 413 kts | 334° |
| 2026-05-07 04:06 | -20.94166 | 151.00654 | 38988 ft | 413 kts | 334° |
| 2026-05-07 04:07 | -20.88692 | 150.98728 | 38988 ft | 413 kts | 334° |
| 2026-05-07 04:07 | -20.83223 | 150.96805 | 38988 ft | 414 kts | 334° |
| 2026-05-07 04:08 | -20.77745 | 150.94879 | 38985 ft | 414 kts | 334° |
| 2026-05-07 04:08 | -20.72304 | 150.92968 | 38977 ft | 414 kts | 334° |
| 2026-05-07 04:09 | -20.66810 | 150.91039 | 38981 ft | 415 kts | 334° |
| 2026-05-07 04:09 | -20.61348 | 150.89124 | 38980 ft | 415 kts | 334° |
| 2026-05-07 04:10 | -20.55844 | 150.87196 | 38983 ft | 415 kts | 334° |
| 2026-05-07 04:10 | -20.50349 | 150.85272 | 38978 ft | 415 kts | 334° |
| 2026-05-07 04:11 | -20.44844 | 150.83347 | 38979 ft | 415 kts | 334° |
| 2026-05-07 04:11 | -20.39383 | 150.81437 | 38979 ft | 416 kts | 334° |
| 2026-05-07 04:12 | -20.33876 | 150.79513 | 38975 ft | 416 kts | 334° |
| 2026-05-07 04:12 | -20.28361 | 150.77588 | 38980 ft | 416 kts | 334° |
| 2026-05-07 04:13 | -20.22847 | 150.75665 | 38977 ft | 416 kts | 334° |
| 2026-05-07 04:13 | -20.17366 | 150.73754 | 38983 ft | 416 kts | 334° |
| 2026-05-07 04:14 | -20.11851 | 150.71833 | 38962 ft | 416 kts | 334° |
| 2026-05-07 04:14 | -20.06364 | 150.69923 | 38979 ft | 417 kts | 334° |
| 2026-05-07 04:15 | -20.00824 | 150.67996 | 38975 ft | 418 kts | 334° |
| 2026-05-07 04:15 | -19.95322 | 150.66085 | 38978 ft | 418 kts | 334° |
| 2026-05-07 04:16 | -19.89788 | 150.64163 | 38978 ft | 418 kts | 334° |
| 2026-05-07 04:16 | -19.84257 | 150.62244 | 38977 ft | 418 kts | 334° |
| 2026-05-07 04:17 | -19.78742 | 150.60331 | 38969 ft | 418 kts | 335° |
| 2026-05-07 04:17 | -19.73189 | 150.58406 | 38974 ft | 419 kts | 335° |
| 2026-05-07 04:18 | -19.67632 | 150.56482 | 38972 ft | 420 kts | 335° |
| 2026-05-07 04:18 | -19.62076 | 150.54560 | 38971 ft | 420 kts | 335° |
| 2026-05-07 04:19 | -19.56531 | 150.52643 | 38972 ft | 420 kts | 335° |
| 2026-05-07 04:19 | -19.50970 | 150.50722 | 38972 ft | 420 kts | 335° |
| 2026-05-07 04:20 | -19.45438 | 150.48812 | 38967 ft | 421 kts | 335° |
| 2026-05-07 04:20 | -19.39859 | 150.46886 | 38965 ft | 422 kts | 335° |
| 2026-05-07 04:21 | -19.31461 | 150.43992 | 38967 ft | 422 kts | 335° |
| 2026-05-07 04:21 | -19.25910 | 150.42081 | 38963 ft | 422 kts | 335° |
| 2026-05-07 04:22 | -19.20327 | 150.40160 | 38967 ft | 422 kts | 335° |
| 2026-05-07 04:22 | -19.14730 | 150.38235 | 38954 ft | 422 kts | 335° |
| 2026-05-07 04:23 | -19.09130 | 150.36310 | 38959 ft | 423 kts | 335° |
| 2026-05-07 04:23 | -19.03522 | 150.34385 | 38970 ft | 423 kts | 335° |
| 2026-05-07 04:24 | -18.97948 | 150.32472 | 38968 ft | 423 kts | 335° |
| 2026-05-07 04:24 | -18.92346 | 150.30551 | 38956 ft | 423 kts | 335° |
| 2026-05-07 04:25 | -18.86735 | 150.28629 | 38967 ft | 423 kts | 335° |
| 2026-05-07 04:25 | -18.81153 | 150.26717 | 38966 ft | 423 kts | 335° |
| 2026-05-07 04:26 | -18.75542 | 150.24797 | 38963 ft | 423 kts | 335° |
| 2026-05-07 04:26 | -18.69953 | 150.22886 | 38963 ft | 423 kts | 335° |
| 2026-05-07 04:27 | -18.64334 | 150.20966 | 38955 ft | 423 kts | 335° |
| 2026-05-07 04:27 | -18.58722 | 150.19050 | 38963 ft | 423 kts | 335° |
| 2026-05-07 04:28 | -18.53140 | 150.17145 | 38948 ft | 424 kts | 335° |
| 2026-05-07 04:28 | -18.47522 | 150.15228 | 38957 ft | 424 kts | 335° |
| 2026-05-07 04:29 | -18.41899 | 150.13312 | 38960 ft | 425 kts | 335° |
| 2026-05-07 04:29 | -18.36308 | 150.11409 | 38956 ft | 424 kts | 335° |
| 2026-05-07 04:30 | -18.30670 | 150.09491 | 38958 ft | 424 kts | 335° |
| 2026-05-07 04:30 | -18.25071 | 150.07587 | 38955 ft | 425 kts | 335° |
| 2026-05-07 04:31 | -18.19443 | 150.05674 | 38950 ft | 425 kts | 335° |
| 2026-05-07 04:31 | -18.13793 | 150.03755 | 38953 ft | 426 kts | 335° |
| 2026-05-07 04:32 | -18.08176 | 150.01849 | 38953 ft | 426 kts | 335° |
| 2026-05-07 04:32 | -18.02554 | 149.99942 | 38948 ft | 426 kts | 335° |
| 2026-05-07 04:33 | -17.96903 | 149.98028 | 38949 ft | 426 kts | 335° |
| 2026-05-07 04:33 | -17.91262 | 149.96117 | 38950 ft | 426 kts | 335° |
| 2026-05-07 04:34 | -17.85605 | 149.94202 | 38951 ft | 427 kts | 336° |
| 2026-05-07 04:34 | -17.79975 | 149.92298 | 38948 ft | 427 kts | 336° |
| 2026-05-07 04:35 | -17.74308 | 149.90383 | 38948 ft | 428 kts | 336° |
| 2026-05-07 04:35 | -17.68640 | 149.88469 | 38950 ft | 428 kts | 336° |
| 2026-05-07 04:36 | -17.62999 | 149.86566 | 38945 ft | 427 kts | 336° |
| 2026-05-07 04:36 | -17.57338 | 149.84656 | 38941 ft | 427 kts | 336° |
| 2026-05-07 04:37 | -17.51660 | 149.82741 | 38942 ft | 428 kts | 336° |
| 2026-05-07 04:37 | -17.46015 | 149.80840 | 38941 ft | 429 kts | 336° |
| 2026-05-07 04:38 | -17.40335 | 149.78928 | 38938 ft | 429 kts | 336° |
| 2026-05-07 04:38 | -17.34649 | 149.77016 | 38938 ft | 429 kts | 336° |
| 2026-05-07 04:39 | -17.28950 | 149.75100 | 38936 ft | 429 kts | 336° |
| 2026-05-07 04:39 | -17.23299 | 149.73201 | 38932 ft | 429 kts | 336° |
| 2026-05-07 04:40 | -17.17585 | 149.71282 | 38936 ft | 430 kts | 336° |
| 2026-05-07 04:40 | -17.11883 | 149.69369 | 38933 ft | 430 kts | 336° |
| 2026-05-07 04:41 | -17.06182 | 149.67458 | 38933 ft | 430 kts | 336° |
| 2026-05-07 04:41 | -17.00518 | 149.65560 | 38930 ft | 430 kts | 336° |
| 2026-05-07 04:42 | -16.94816 | 149.63650 | 38922 ft | 430 kts | 336° |
| 2026-05-07 04:42 | -16.89099 | 149.61737 | 38925 ft | 431 kts | 336° |
| 2026-05-07 04:43 | -16.83424 | 149.59839 | 38922 ft | 431 kts | 336° |
| 2026-05-07 04:43 | -16.77710 | 149.57929 | 38925 ft | 431 kts | 336° |
| 2026-05-07 04:44 | -16.71990 | 149.56018 | 38925 ft | 431 kts | 336° |
| 2026-05-07 04:44 | -16.66280 | 149.54112 | 38925 ft | 431 kts | 336° |
| 2026-05-07 04:45 | -16.60601 | 149.52217 | 38920 ft | 431 kts | 336° |
| 2026-05-07 04:45 | -16.54880 | 149.50309 | 38922 ft | 432 kts | 336° |
| 2026-05-07 04:46 | -16.49147 | 149.48399 | 38919 ft | 432 kts | 336° |
| 2026-05-07 04:46 | -16.43444 | 149.46500 | 38919 ft | 432 kts | 336° |
| 2026-05-07 04:47 | -16.37716 | 149.44594 | 38919 ft | 432 kts | 336° |
| 2026-05-07 04:47 | -16.31979 | 149.42686 | 38919 ft | 432 kts | 336° |
| 2026-05-07 04:48 | -16.26268 | 149.40787 | 38918 ft | 433 kts | 337° |
| 2026-05-07 04:48 | -16.20517 | 149.38877 | 38915 ft | 433 kts | 337° |
| 2026-05-07 04:49 | -16.14772 | 149.36970 | 38915 ft | 433 kts | 337° |
| 2026-05-07 04:49 | -16.09067 | 149.35078 | 38915 ft | 433 kts | 337° |
| 2026-05-07 04:50 | -16.03338 | 149.33178 | 38912 ft | 433 kts | 337° |
| 2026-05-07 04:50 | -15.98518 | 149.31581 | 38900 ft | 433 kts | 337° |
| 2026-05-07 04:51 | -15.92784 | 149.29680 | 38912 ft | 436 kts | 337° |
| 2026-05-07 04:51 | -15.86991 | 149.27763 | 38912 ft | 436 kts | 337° |
| 2026-05-07 04:52 | -15.81233 | 149.25858 | 38908 ft | 436 kts | 337° |
| 2026-05-07 04:52 | -15.75429 | 149.23940 | 38908 ft | 436 kts | 337° |
| 2026-05-07 04:53 | -15.69655 | 149.22033 | 38908 ft | 436 kts | 337° |
| 2026-05-07 04:53 | -15.63863 | 149.20120 | 38909 ft | 436 kts | 337° |
| 2026-05-07 04:54 | -15.58061 | 149.18205 | 38906 ft | 436 kts | 337° |
| 2026-05-07 04:54 | -15.52311 | 149.16309 | 38906 ft | 436 kts | 337° |
| 2026-05-07 04:55 | -15.46516 | 149.14399 | 38903 ft | 436 kts | 337° |
| 2026-05-07 04:55 | -15.40716 | 149.12488 | 38903 ft | 436 kts | 337° |
| 2026-05-07 04:56 | -15.34959 | 149.10593 | 38892 ft | 436 kts | 337° |
| 2026-05-07 04:56 | -15.29144 | 149.08679 | 38901 ft | 438 kts | 337° |
| 2026-05-07 04:57 | -15.23331 | 149.06767 | 38900 ft | 438 kts | 337° |
| 2026-05-07 04:57 | -15.17545 | 149.04866 | 38897 ft | 438 kts | 337° |
| 2026-05-07 04:58 | -15.11714 | 149.02951 | 38898 ft | 438 kts | 337° |
| 2026-05-07 04:58 | -15.06037 | 149.01087 | 38894 ft | 438 kts | 337° |
| 2026-05-07 04:59 | -15.00224 | 148.99180 | 38893 ft | 439 kts | 337° |
| 2026-05-07 04:59 | -14.94386 | 148.97265 | 38892 ft | 440 kts | 337° |
| 2026-05-07 05:00 | -14.88571 | 148.95360 | 38895 ft | 440 kts | 337° |
| 2026-05-07 05:00 | -14.82721 | 148.93444 | 38892 ft | 440 kts | 337° |
| 2026-05-07 05:01 | -14.76872 | 148.91530 | 38889 ft | 440 kts | 337° |
| 2026-05-07 05:01 | -14.71029 | 148.89618 | 38880 ft | 440 kts | 337° |
| 2026-05-07 05:02 | -14.65218 | 148.87718 | 38888 ft | 441 kts | 338° |
| 2026-05-07 05:02 | -14.59355 | 148.85802 | 38890 ft | 441 kts | 338° |
| 2026-05-07 05:03 | -14.53491 | 148.83887 | 38887 ft | 442 kts | 338° |
| 2026-05-07 05:03 | -14.47629 | 148.81974 | 38886 ft | 442 kts | 338° |
| 2026-05-07 05:04 | -14.41763 | 148.80060 | 38884 ft | 442 kts | 338° |
| 2026-05-07 05:04 | -14.35925 | 148.78156 | 38881 ft | 442 kts | 338° |
| 2026-05-07 05:05 | -14.30043 | 148.76239 | 38881 ft | 442 kts | 338° |
| 2026-05-07 05:05 | -14.24205 | 148.74338 | 38880 ft | 442 kts | 338° |
| 2026-05-07 05:06 | -14.18335 | 148.72428 | 38879 ft | 442 kts | 338° |
| 2026-05-07 05:06 | -14.12460 | 148.70516 | 38885 ft | 442 kts | 338° |
| 2026-05-07 05:07 | -14.06623 | 148.68618 | 38871 ft | 442 kts | 338° |
| 2026-05-07 05:07 | -14.00750 | 148.66709 | 38886 ft | 442 kts | 338° |
| 2026-05-07 05:08 | -13.94867 | 148.64798 | 38870 ft | 443 kts | 338° |
| 2026-05-07 05:08 | -13.89005 | 148.62895 | 38871 ft | 443 kts | 338° |
| 2026-05-07 05:09 | -13.83148 | 148.60995 | 38880 ft | 443 kts | 338° |
| 2026-05-07 05:09 | -13.77264 | 148.59087 | 38878 ft | 443 kts | 338° |
| 2026-05-07 05:10 | -13.71386 | 148.57182 | 38876 ft | 443 kts | 338° |
| 2026-05-07 05:10 | -13.65491 | 148.55272 | 38870 ft | 443 kts | 338° |
| 2026-05-07 05:11 | -13.59628 | 148.53374 | 38874 ft | 443 kts | 338° |
| 2026-05-07 05:11 | -13.53725 | 148.51463 | 38869 ft | 443 kts | 338° |
| 2026-05-07 05:12 | -13.47872 | 148.49570 | 38872 ft | 443 kts | 338° |
| 2026-05-07 05:12 | -13.41980 | 148.47666 | 38862 ft | 443 kts | 338° |
| 2026-05-07 05:13 | -13.36075 | 148.45757 | 38875 ft | 443 kts | 338° |
| 2026-05-07 05:13 | -13.30215 | 148.43865 | 38872 ft | 443 kts | 339° |
| 2026-05-07 05:14 | -13.24324 | 148.41964 | 38861 ft | 443 kts | 339° |
| 2026-05-07 05:14 | -13.18424 | 148.40060 | 38865 ft | 443 kts | 339° |
| 2026-05-07 05:15 | -13.12535 | 148.38161 | 38866 ft | 443 kts | 339° |
| 2026-05-07 05:15 | -13.06675 | 148.36272 | 38864 ft | 445 kts | 339° |
| 2026-05-07 05:16 | -13.00746 | 148.34362 | 38870 ft | 446 kts | 339° |
| 2026-05-07 05:16 | -12.94809 | 148.32450 | 38863 ft | 447 kts | 339° |
| 2026-05-07 05:17 | -12.88900 | 148.30549 | 38863 ft | 446 kts | 339° |
| 2026-05-07 05:17 | -12.82958 | 148.28638 | 38869 ft | 446 kts | 339° |
| 2026-05-07 05:18 | -12.77062 | 148.26743 | 38860 ft | 446 kts | 339° |
| 2026-05-07 05:18 | -12.71117 | 148.24832 | 38863 ft | 448 kts | 339° |
| 2026-05-07 05:19 | -12.65141 | 148.22912 | 38864 ft | 449 kts | 339° |
| 2026-05-07 05:19 | -12.59217 | 148.21011 | 38864 ft | 449 kts | 339° |
| 2026-05-07 05:20 | -12.53238 | 148.19093 | 38864 ft | 448 kts | 339° |
| 2026-05-07 05:20 | -12.47310 | 148.17192 | 38864 ft | 448 kts | 339° |
| 2026-05-07 05:21 | -12.38368 | 148.14326 | 38862 ft | 448 kts | 339° |
| 2026-05-07 05:22 | -12.32409 | 148.12417 | 38862 ft | 448 kts | 339° |
| 2026-05-07 05:22 | -12.26487 | 148.10521 | 38862 ft | 448 kts | 339° |
| 2026-05-07 05:23 | -12.20526 | 148.08614 | 38861 ft | 448 kts | 339° |
| 2026-05-07 05:23 | -12.14601 | 148.06718 | 38862 ft | 448 kts | 339° |
| 2026-05-07 05:24 | -12.08636 | 148.04811 | 38864 ft | 449 kts | 339° |
| 2026-05-07 05:24 | -12.02659 | 148.02901 | 38861 ft | 449 kts | 339° |
| 2026-05-07 05:25 | -11.96725 | 148.01007 | 38859 ft | 449 kts | 339° |
| 2026-05-07 05:25 | -11.90760 | 147.99104 | 38859 ft | 449 kts | 339° |
| 2026-05-07 05:26 | -11.84793 | 147.97202 | 38860 ft | 449 kts | 339° |
| 2026-05-07 05:26 | -11.78823 | 147.95299 | 38858 ft | 449 kts | 339° |
| 2026-05-07 05:27 | -11.72846 | 147.93395 | 38859 ft | 450 kts | 339° |
| 2026-05-07 05:27 | -11.66897 | 147.91501 | 38857 ft | 450 kts | 340° |
| 2026-05-07 05:28 | -11.60916 | 147.89598 | 38855 ft | 449 kts | 339° |
| 2026-05-07 05:28 | -11.54971 | 147.87707 | 38856 ft | 449 kts | 339° |
| 2026-05-07 05:29 | -11.48996 | 147.85807 | 38855 ft | 449 kts | 340° |
| 2026-05-07 05:29 | -11.43017 | 147.83907 | 38856 ft | 450 kts | 340° |
| 2026-05-07 05:30 | -11.37037 | 147.82007 | 38856 ft | 450 kts | 340° |
| 2026-05-07 05:30 | -11.31050 | 147.80106 | 38856 ft | 450 kts | 340° |
| 2026-05-07 05:31 | -11.25103 | 147.78219 | 38854 ft | 450 kts | 340° |
| 2026-05-07 05:31 | -11.19124 | 147.76322 | 38851 ft | 450 kts | 340° |
| 2026-05-07 05:32 | -11.13143 | 147.74425 | 38850 ft | 450 kts | 340° |
| 2026-05-07 05:32 | -11.07147 | 147.72524 | 38847 ft | 450 kts | 340° |
| 2026-05-07 05:33 | -11.01262 | 147.70660 | 38817 ft | 447 kts | 340° |
| 2026-05-07 05:33 | -10.98306 | 147.69725 | 38224 ft | 436 kts | 340° |
| 2026-05-07 05:33 | -10.95456 | 147.68824 | 36924 ft | 433 kts | 340° |
| 2026-05-07 05:33 | -10.92568 | 147.67908 | 35408 ft | 436 kts | 340° |
| 2026-05-07 05:34 | -10.89652 | 147.66983 | 33844 ft | 441 kts | 340° |
| 2026-05-07 05:34 | -10.86705 | 147.66049 | 32040 ft | 445 kts | 341° |
| 2026-05-07 05:34 | -10.83735 | 147.65108 | 30240 ft | 449 kts | 341° |
| 2026-05-07 05:34 | -10.80731 | 147.64158 | 28194 ft | 452 kts | 341° |
| 2026-05-07 05:35 | -10.77756 | 147.63217 | 26169 ft | 453 kts | 342° |
| 2026-05-07 05:35 | -10.74740 | 147.62264 | 24166 ft | 453 kts | 342° |
| 2026-05-07 05:35 | -10.71743 | 147.61316 | 22614 ft | 446 kts | 343° |
| 2026-05-07 05:35 | -10.68784 | 147.60381 | 22021 ft | 440 kts | 343° |
| 2026-05-07 05:36 | -10.65900 | 147.59470 | 21757 ft | 428 kts | 343° |
| 2026-05-07 05:36 | -10.63090 | 147.58582 | 21516 ft | 418 kts | 343° |
| 2026-05-07 05:36 | -10.60326 | 147.57709 | 21271 ft | 411 kts | 343° |
| 2026-05-07 05:36 | -10.57608 | 147.56851 | 21026 ft | 407 kts | 343° |
| 2026-05-07 05:37 | -10.54943 | 147.56009 | 20792 ft | 404 kts | 343° |
| 2026-05-07 05:37 | -10.52258 | 147.55162 | 20553 ft | 401 kts | 343° |
| 2026-05-07 05:37 | -10.49578 | 147.54316 | 20075 ft | 406 kts | 343° |
| 2026-05-07 05:37 | -10.46846 | 147.53454 | 19345 ft | 415 kts | 343° |
| 2026-05-07 05:38 | -10.45008 | 147.52874 | 18835 ft | 420 kts | 344° |
| 2026-05-07 05:38 | -10.41271 | 147.51696 | 17734 ft | 425 kts | 344° |
| 2026-05-07 05:38 | -10.38450 | 147.50805 | 16894 ft | 422 kts | 344° |
| 2026-05-07 05:38 | -10.35696 | 147.49936 | 16133 ft | 412 kts | 344° |
| 2026-05-07 05:39 | -10.33841 | 147.49351 | 15613 ft | 412 kts | 344° |
| 2026-05-07 05:39 | -10.31119 | 147.48493 | 14868 ft | 414 kts | 343° |
| 2026-05-07 05:39 | -10.27526 | 147.47360 | 13969 ft | 402 kts | 344° |
| 2026-05-07 05:39 | -10.25722 | 147.46796 | 13438 ft | 402 kts | 345° |
| 2026-05-07 05:40 | -10.22978 | 147.46161 | 12479 ft | 406 kts | 351° |
| 2026-05-07 05:40 | -10.20239 | 147.45746 | 11579 ft | 399 kts | 353° |
| 2026-05-07 05:40 | -10.17525 | 147.45379 | 10831 ft | 388 kts | 353° |
| 2026-05-07 05:40 | -10.14912 | 147.45029 | 10535 ft | 364 kts | 354° |
| 2026-05-07 05:41 | -10.12499 | 147.44704 | 10446 ft | 336 kts | 353° |
| 2026-05-07 05:41 | -10.10260 | 147.44401 | 10348 ft | 313 kts | 354° |
| 2026-05-07 05:41 | -10.08170 | 147.44116 | 10251 ft | 293 kts | 353° |
| 2026-05-07 05:41 | -10.06199 | 147.43848 | 10144 ft | 279 kts | 353° |
| 2026-05-07 05:42 | -10.04314 | 147.43592 | 10027 ft | 275 kts | 354° |
| 2026-05-07 05:42 | -10.02403 | 147.43333 | 9785 ft | 277 kts | 353° |
| 2026-05-07 05:42 | -10.00490 | 147.43072 | 9363 ft | 276 kts | 353° |
| 2026-05-07 05:42 | -9.98596 | 147.42814 | 8996 ft | 274 kts | 354° |
| 2026-05-07 05:43 | -9.96701 | 147.42555 | 8649 ft | 273 kts | 353° |
| 2026-05-07 05:43 | -9.94823 | 147.42299 | 8299 ft | 271 kts | 353° |
| 2026-05-07 05:43 | -9.92979 | 147.42047 | 7958 ft | 270 kts | 353° |
| 2026-05-07 05:43 | -9.91114 | 147.41792 | 7610 ft | 268 kts | 353° |
| 2026-05-07 05:44 | -9.89268 | 147.41540 | 7242 ft | 267 kts | 353° |
| 2026-05-07 05:44 | -9.87431 | 147.41289 | 6874 ft | 265 kts | 353° |
| 2026-05-07 05:44 | -9.85604 | 147.41039 | 6530 ft | 264 kts | 353° |
| 2026-05-07 05:44 | -9.83805 | 147.40793 | 6192 ft | 263 kts | 353° |
| 2026-05-07 05:45 | -9.81994 | 147.40546 | 5829 ft | 261 kts | 353° |
| 2026-05-07 05:45 | -9.80192 | 147.40300 | 5493 ft | 261 kts | 353° |
| 2026-05-07 05:45 | -9.78389 | 147.40053 | 5159 ft | 260 kts | 353° |
| 2026-05-07 05:45 | -9.76599 | 147.39809 | 4819 ft | 259 kts | 354° |
| 2026-05-07 05:46 | -9.74830 | 147.39567 | 4472 ft | 259 kts | 353° |
| 2026-05-07 05:46 | -9.73045 | 147.39319 | 4128 ft | 258 kts | 352° |
| 2026-05-07 05:46 | -9.71330 | 147.38792 | 3789 ft | 259 kts | 336° |
| 2026-05-07 05:46 | -9.69747 | 147.37912 | 3436 ft | 260 kts | 330° |
| 2026-05-07 05:47 | -9.68202 | 147.36954 | 3106 ft | 260 kts | 329° |
| 2026-05-07 05:47 | -9.66688 | 147.36002 | 2761 ft | 259 kts | 330° |
| 2026-05-07 05:47 | -9.65153 | 147.35042 | 2437 ft | 259 kts | 329° |
| 2026-05-07 05:47 | -9.63614 | 147.34084 | 2127 ft | 263 kts | 329° |
| 2026-05-07 05:48 | -9.62050 | 147.33123 | 2005 ft | 255 kts | 330° |
| 2026-05-07 05:48 | -9.60582 | 147.32239 | 1994 ft | 236 kts | 329° |
| 2026-05-07 05:48 | -9.59228 | 147.31403 | 1987 ft | 218 kts | 329° |
| 2026-05-07 05:48 | -9.57987 | 147.30634 | 2015 ft | 201 kts | 330° |
| 2026-05-07 05:49 | -9.56802 | 147.29902 | 2040 ft | 200 kts | 330° |
| 2026-05-07 05:49 | -9.55615 | 147.29167 | 2014 ft | 203 kts | 329° |
| 2026-05-07 05:49 | -9.54410 | 147.28420 | 2013 ft | 205 kts | 329° |
| 2026-05-07 05:49 | -9.53299 | 147.27729 | 1947 ft | 170 kts | 328° |
| 2026-05-07 05:50 | -9.52350 | 147.27139 | 1743 ft | 151 kts | 328° |
| 2026-05-07 05:50 | -9.51496 | 147.26608 | 1552 ft | 137 kts | 327° |
| 2026-05-07 05:50 | -9.50703 | 147.26115 | 1392 ft | 132 kts | 327° |
| 2026-05-07 05:50 | -9.49924 | 147.25630 | 1233 ft | 132 kts | 327° |
| 2026-05-07 05:51 | -9.49144 | 147.25144 | 1057 ft | 131 kts | 327° |
| 2026-05-07 05:51 | -9.48376 | 147.24667 | 896 ft | 131 kts | 327° |
| 2026-05-07 05:51 | -9.47598 | 147.24184 | 727 ft | 130 kts | 327° |
| 2026-05-07 05:51 | -9.46826 | 147.23704 | 550 ft | 131 kts | 328° |
| 2026-05-07 05:52 | -9.46056 | 147.23225 | 376 ft | 130 kts | 327° |
| 2026-05-07 05:52 | -9.45288 | 147.22749 | 197 ft | 130 kts | 327° |
| 2026-05-07 05:52 | -9.44551 | 147.22293 | 98 ft | 105 kts | 329° |
| 2026-05-07 05:52 | -9.44168 | 147.22057 | 96 ft | 41 kts | 328° |
| 2026-05-07 05:53 | -9.43925 | 147.21903 | 88 ft | 27 kts | 311° |
| 2026-05-07 05:53 | -9.43957 | 147.21768 | 90 ft | 24 kts | 238° |
| 2026-05-07 05:53 | -9.44049 | 147.21615 | 93 ft | 27 kts | 237° |
| 2026-05-07 05:53 | -9.44101 | 147.21543 | 92 ft | 5 kts | 285° |
| 2026-05-07 05:54 | -9.43995 | 147.21472 | 88 ft | 16 kts | 294° |
| 2026-05-07 05:54 | -9.44031 | 147.21354 | 89 ft | 14 kts | 291° |
| 2026-05-07 05:54 | -9.43891 | 147.21255 | 88 ft | 26 kts | 326° |
| 2026-05-07 05:54 | -9.43876 | 147.21217 | 87 ft | 0 kts | 231° |